Time;durP1;ratioP1;P1;durP2;ratioP2;P2;SDS_P1;SDS_P2;PMS_P1;PMS_P2;Temp;Humidity;BMP_temperature;BMP_pressure;BME280_temperature;BME280_humidity;BME280_pressure;Samples;Min_cycle;Max_cycle;Signal;HPM_P1;HPM_P2
2022/11/02 00:05:49;;;;;;;;;66.00;51.75;;;;;;;;6490350;39;8952;-60
2022/11/02 00:11:51;;;;;;;;;64.75;52.50;;;;;;;;6489633;39;9487;-60
2022/11/02 00:18:00;;;;;;;;;63.00;52.25;;;;;;;;6490352;31;8913;-61
2022/11/02 00:24:23;;;;;;;;;71.00;56.50;;;;;;;;6489653;31;8918;-60
2022/11/02 00:30:26;;;;;;;;;69.75;54.50;;;;;;;;6489681;39;8881;-60
2022/11/02 00:36:30;;;;;;;;;63.00;52.50;;;;;;;;6490967;39;8863;-61
2022/11/02 00:42:33;;;;;;;;;66.50;55.00;;;;;;;;6492281;39;8902;-60
2022/11/02 00:48:35;;;;;;;;;68.75;54.25;;;;;;;;6490916;39;8891;-61
2022/11/02 00:54:38;;;;;;;;;63.75;51.00;;;;;;;;6490934;46;8956;-61
2022/11/02 01:00:40;;;;;;;;;63.50;52.00;;;;;;;;6491660;39;8824;-61
2022/11/02 01:06:44;;;;;;;;;64.25;53.25;;;;;;;;6491438;31;8938;-59
2022/11/02 01:12:47;;;;;;;;;68.75;53.25;;;;;;;;6490835;39;8887;-60
2022/11/02 01:18:52;;;;;;;;;65.00;53.50;;;;;;;;6491195;39;8898;-60
2022/11/02 01:24:54;;;;;;;;;62.25;50.00;;;;;;;;6491262;31;9503;-59
2022/11/02 01:30:57;;;;;;;;;62.50;50.75;;;;;;;;6490692;39;8863;-60
2022/11/02 01:37:00;;;;;;;;;62.25;47.50;;;;;;;;6490571;39;9510;-59
2022/11/02 01:43:21;;;;;;;;;56.25;48.25;;;;;;;;6490998;39;8882;-59
2022/11/02 01:49:24;;;;;;;;;48.75;39.25;;;;;;;;6492887;39;9036;-60
2022/11/02 01:55:32;;;;;;;;;60.25;48.25;;;;;;;;6490735;46;8995;-60
2022/11/02 02:01:35;;;;;;;;;62.00;51.00;;;;;;;;6490855;46;8862;-60
2022/11/02 02:07:39;;;;;;;;;60.75;49.50;;;;;;;;6490174;39;8881;-59
2022/11/02 02:13:41;;;;;;;;;61.50;50.25;;;;;;;;6490182;31;8924;-59
2022/11/02 02:19:58;;;;;;;;;68.00;54.25;;;;;;;;6491335;39;8930;-59
2022/11/02 02:26:10;;;;;;;;;61.00;52.00;;;;;;;;6490118;46;8871;-60
2022/11/02 02:32:13;;;;;;;;;58.25;46.25;;;;;;;;6491698;39;9510;-59
2022/11/02 02:38:30;;;;;;;;;59.00;47.00;;;;;;;;6491068;31;8871;-59
2022/11/02 02:44:37;;;;;;;;;69.50;54.00;;;;;;;;6489758;46;8896;-60
2022/11/02 02:50:47;;;;;;;;;70.00;56.00;;;;;;;;6488382;46;8847;-59
2022/11/02 02:56:55;;;;;;;;;66.33;55.67;;;;;;;;6488250;39;8860;-61
2022/11/02 03:03:04;;;;;;;;;65.75;54.75;;;;;;;;6489180;39;8946;-60
2022/11/02 03:09:19;;;;;;;;;68.33;57.33;;;;;;;;6489069;39;8919;-59
2022/11/02 03:15:34;;;;;;;;;65.00;53.50;;;;;;;;6489287;39;8923;-59
2022/11/02 03:21:42;;;;;;;;;61.50;49.50;;;;;;;;6488154;39;8950;-60
2022/11/02 03:28:31;;;;;;;;;63.75;50.75;;;;;;;;6489530;39;9466;-59
2022/11/02 03:34:45;;;;;;;;;68.25;54.25;;;;;;;;6487335;39;9115;-59
2022/11/02 03:40:54;;;;;;;;;62.25;50.50;;;;;;;;6488719;31;8945;-59
2022/11/02 03:47:02;;;;;;;;;65.25;53.75;;;;;;;;6488376;39;9404;-61
2022/11/02 03:53:11;;;;;;;;;65.25;53.00;;;;;;;;6487993;39;8910;-60
2022/11/02 03:59:15;;;;;;;;;67.25;54.75;;;;;;;;6489125;39;9361;-59
2022/11/02 04:05:27;;;;;;;;;63.25;52.50;;;;;;;;6487601;47;8948;-61
2022/11/02 04:30:36;;;;;;;;;58.75;48.50;;;;;;;;6490150;39;8870;-59
2022/11/02 04:36:39;;;;;;;;;65.25;55.75;;;;;;;;6490137;39;9096;-59
2022/11/02 04:42:46;;;;;;;;;66.00;54.75;;;;;;;;6491314;39;8993;-59
2022/11/02 04:48:49;;;;;;;;;65.50;54.50;;;;;;;;6490061;31;8939;-59
2022/11/02 04:54:52;;;;;;;;;71.75;57.00;;;;;;;;6490368;46;8895;-59
2022/11/02 05:07:39;;;;;;;;;64.00;52.75;;;;;;;;6490665;31;9631;-59
2022/11/02 05:13:43;;;;;;;;;68.75;58.00;;;;;;;;6491075;31;8895;-59
2022/11/02 13:44:39;;;;;;;;;55.00;45.33;;;;;;;;5761495;46;10000955;-63
2022/11/02 13:50:47;;;;;;;;;54.33;44.33;;;;;;;;6490386;31;8852;-61
2022/11/02 13:56:53;;;;;;;;;55.00;45.00;;;;;;;;6489132;39;9583;-61
2022/11/02 14:02:58;;;;;;;;;55.00;45.00;;;;;;;;6488855;39;8871;-59
2022/11/02 14:09:04;;;;;;;;;55.67;45.00;;;;;;;;6488058;39;8874;-60
2022/11/02 14:15:13;;;;;;;;;59.67;49.67;;;;;;;;6488571;39;8840;-59
2022/11/02 14:21:41;;;;;;;;;33.33;28.67;;;;;;;;6488225;46;8858;-61
2022/11/02 14:27:45;;;;;;;;;57.33;47.67;;;;;;;;6487079;31;8804;-61
2022/11/02 14:33:58;;;;;;;;;59.00;47.33;;;;;;;;6485585;39;8905;-60
2022/11/02 14:40:06;;;;;;;;;57.33;45.67;;;;;;;;6487004;31;8936;-64
2022/11/02 14:46:47;;;;;;;;;57.33;47.33;;;;;;;;6487873;31;9827;-61
2022/11/02 14:53:04;;;;;;;;;52.67;45.33;;;;;;;;6487636;31;9048;-60
2022/11/02 14:59:17;;;;;;;;;56.67;48.00;;;;;;;;6487563;31;8930;-59
2022/11/02 15:05:27;;;;;;;;;60.67;47.33;;;;;;;;6488349;39;9457;-60
2022/11/02 15:11:41;;;;;;;;;57.00;48.00;;;;;;;;6488211;39;8873;-60
2022/11/02 15:17:43;;;;;;;;;64.33;50.67;;;;;;;;6487514;46;9009;-61
2022/11/02 15:23:56;;;;;;;;;55.00;46.00;;;;;;;;6489095;31;8831;-60
2022/11/02 15:29:59;;;;;;;;;59.50;50.75;;;;;;;;6488003;31;8869;-61
2022/11/02 15:36:06;;;;;;;;;56.67;47.33;;;;;;;;6487984;39;8928;-60
2022/11/02 15:42:27;;;;;;;;;62.33;48.33;;;;;;;;6487776;39;9055;-61
2022/11/02 15:48:41;;;;;;;;;56.00;44.67;;;;;;;;6488030;31;8949;-60
2022/11/02 15:55:18;;;;;;;;;54.67;46.00;;;;;;;;6488384;31;8869;-59
2022/11/02 16:01:25;;;;;;;;;55.33;48.00;;;;;;;;6487789;31;8925;-62
2022/11/02 16:07:29;;;;;;;;;56.33;45.33;;;;;;;;6487904;39;8885;-60
2022/11/02 16:14:16;;;;;;;;;54.67;44.67;;;;;;;;6486494;39;8910;-60
2022/11/02 16:20:34;;;;;;;;;57.67;46.00;;;;;;;;6486990;47;8913;-60
2022/11/02 16:26:36;;;;;;;;;52.33;42.67;;;;;;;;6487197;31;8882;-61
2022/11/02 16:32:38;;;;;;;;;59.33;46.67;;;;;;;;6488100;39;9524;-61
2022/11/02 16:38:58;;;;;;;;;50.33;43.33;;;;;;;;6487454;31;9013;-60
2022/11/02 16:45:02;;;;;;;;;54.00;44.33;;;;;;;;6532762;36;8937;-60
2022/11/02 16:51:11;;;;;;;;;53.33;41.67;;;;;;;;6487991;31;8846;-63
2022/11/02 16:57:22;;;;;;;;;53.00;43.50;;;;;;;;6487510;31;8932;-62
2022/11/02 17:03:31;;;;;;;;;56.75;46.75;;;;;;;;6486573;31;8877;-60
2022/11/02 17:09:34;;;;;;;;;54.33;45.00;;;;;;;;6487008;31;8841;-61
2022/11/02 17:15:38;;;;;;;;;59.50;48.25;;;;;;;;6488669;31;10045;-60
2022/11/02 17:21:43;;;;;;;;;58.00;47.00;;;;;;;;6488586;31;8924;-60
2022/11/02 17:27:48;;;;;;;;;55.00;45.00;;;;;;;;6488378;46;8874;-61
2022/11/02 17:33:57;;;;;;;;;59.00;47.75;;;;;;;;6488645;31;8861;-60
2022/11/02 17:40:01;;;;;;;;;57.75;48.25;;;;;;;;6488573;39;8958;-61
2022/11/02 17:46:03;;;;;;;;;56.00;46.75;;;;;;;;6489779;39;9532;-60
2022/11/02 17:52:12;;;;;;;;;58.75;46.00;;;;;;;;6488726;46;8946;-60
2022/11/02 17:58:16;;;;;;;;;52.00;40.50;;;;;;;;6488444;31;9362;-61
2022/11/02 18:04:19;;;;;;;;;54.33;43.33;;;;;;;;6489621;31;8874;-60
2022/11/02 18:10:27;;;;;;;;;51.00;42.67;;;;;;;;6489080;31;8849;-61
2022/11/02 18:16:30;;;;;;;;;52.00;42.00;;;;;;;;6489678;31;8823;-60
2022/11/02 18:22:32;;;;;;;;;51.25;39.75;;;;;;;;6488889;31;8861;-61
2022/11/02 18:28:44;;;;;;;;;52.75;42.75;;;;;;;;6487867;31;8950;-61
2022/11/02 18:34:47;;;;;;;;;54.00;44.00;;;;;;;;6488682;31;8869;-60
2022/11/02 18:40:49;;;;;;;;;52.50;42.00;;;;;;;;6488543;39;9156;-61
2022/11/02 18:46:51;;;;;;;;;47.75;41.25;;;;;;;;6488873;31;8813;-60
2022/11/02 18:52:57;;;;;;;;;52.00;41.00;;;;;;;;6488747;31;8882;-60
2022/11/02 18:59:03;;;;;;;;;47.33;39.33;;;;;;;;6487372;39;9763;-62
2022/11/02 19:09:16;;;;;;;;;46.75;40.25;;;;;;;;6488822;39;8862;-62
2022/11/02 19:11:27;;;;;;;;;56.00;43.75;;;;;;;;6487886;46;8916;-60
2022/11/02 19:17:30;;;;;;;;;69.50;55.00;;;;;;;;6488876;39;8917;-59
2022/11/02 19:23:35;;;;;;;;;62.00;51.75;;;;;;;;6488146;39;8869;-59
2022/11/02 19:29:37;;;;;;;;;57.25;43.75;;;;;;;;6488482;39;8914;-60
2022/11/02 19:35:40;;;;;;;;;52.00;42.50;;;;;;;;6488256;31;8873;-62
2022/11/02 19:41:42;;;;;;;;;55.75;46.00;;;;;;;;6486776;46;8986;-61
2022/11/02 19:47:44;;;;;;;;;56.25;46.25;;;;;;;;6487427;46;9095;-59
2022/11/02 19:53:49;;;;;;;;;57.25;48.75;;;;;;;;6488194;39;8993;-63
2022/11/02 19:59:52;;;;;;;;;53.25;42.00;;;;;;;;6488102;39;8885;-60
2022/11/02 20:06:01;;;;;;;;;58.00;47.50;;;;;;;;6487886;31;8953;-59
2022/11/02 20:12:06;;;;;;;;;56.75;46.75;;;;;;;;6487100;47;8841;-60
2022/11/02 20:18:11;;;;;;;;;53.00;42.75;;;;;;;;6487386;39;9017;-60
2022/11/02 20:24:20;;;;;;;;;49.50;41.50;;;;;;;;6488172;39;8853;-61
2022/11/02 20:30:24;;;;;;;;;50.25;44.00;;;;;;;;6488387;39;8929;-61
2022/11/02 20:36:26;;;;;;;;;51.25;42.00;;;;;;;;6487624;39;8968;-62
2022/11/02 20:42:28;;;;;;;;;47.25;39.50;;;;;;;;6487769;31;8942;-60
2022/11/02 20:48:32;;;;;;;;;48.00;40.25;;;;;;;;6488101;31;8877;-61
2022/11/02 20:54:37;;;;;;;;;45.25;36.25;;;;;;;;6489849;39;8916;-59
2022/11/02 21:00:41;;;;;;;;;47.25;39.00;;;;;;;;6490124;46;8941;-60
2022/11/02 21:06:43;;;;;;;;;44.75;40.50;;;;;;;;6489974;31;9648;-60
2022/11/02 21:19:06;;;;;;;;;42.25;35.25;;;;;;;;6489563;39;8857;-61
2022/11/02 21:25:09;;;;;;;;;39.00;36.25;;;;;;;;6489637;39;8872;-60
2022/11/02 21:31:17;;;;;;;;;36.75;35.00;;;;;;;;6489992;39;8969;-61
2022/11/02 21:37:19;;;;;;;;;40.50;34.25;;;;;;;;6489096;39;8912;-59
2022/11/02 21:43:21;;;;;;;;;35.67;33.33;;;;;;;;6488963;39;8920;-60
2022/11/02 21:49:23;;;;;;;;;37.00;35.25;;;;;;;;6489268;39;8881;-61
2022/11/02 21:55:26;;;;;;;;;39.00;35.00;;;;;;;;6489444;31;8944;-61
2022/11/02 22:01:47;;;;;;;;;43.25;36.75;;;;;;;;6490129;31;9032;-59
2022/11/02 22:14:13;;;;;;;;;38.00;35.00;;;;;;;;6489505;31;8975;-60
2022/11/02 22:20:16;;;;;;;;;37.33;31.67;;;;;;;;6488684;31;9096;-61
2022/11/02 22:26:22;;;;;;;;;28.67;27.00;;;;;;;;6489365;39;8891;-60
2022/11/02 22:32:24;;;;;;;;;33.67;30.33;;;;;;;;6489597;39;8829;-59
2022/11/02 22:44:48;;;;;;;;;30.33;26.00;;;;;;;;6489323;39;8988;-61
2022/11/02 22:50:51;;;;;;;;;31.00;30.00;;;;;;;;6488853;31;9446;-61
2022/11/02 22:56:54;;;;;;;;;33.33;32.67;;;;;;;;6488704;39;8856;-60
2022/11/02 23:02:56;;;;;;;;;34.33;32.00;;;;;;;;6488466;31;8843;-60
2022/11/02 23:08:59;;;;;;;;;35.00;32.67;;;;;;;;6489461;39;8852;-61
2022/11/02 23:15:02;;;;;;;;;38.00;30.00;;;;;;;;6488035;39;8882;-62
2022/11/02 23:21:04;;;;;;;;;36.67;34.33;;;;;;;;6487989;39;8999;-60
2022/11/02 23:27:09;;;;;;;;;43.00;36.00;;;;;;;;6489177;39;8851;-58
2022/11/02 23:33:14;;;;;;;;;34.33;31.33;;;;;;;;6488286;39;8840;-60
2022/11/02 23:45:38;;;;;;;;;34.33;29.33;;;;;;;;6488959;31;8967;-60
2022/11/02 23:58:02;;;;;;;;;29.67;27.00;;;;;;;;6488367;31;9036;-59
